createdAt,value
2023-04-03T00:00:32.524Z,19.51
2023-04-03T00:02:59.257Z,19.51
2023-04-03T00:05:26.474Z,19.49
2023-04-03T00:07:53.180Z,19.51
2023-04-03T00:10:20.354Z,19.50
2023-04-03T00:12:46.987Z,19.49
2023-04-03T00:15:13.626Z,19.48
2023-04-03T00:17:41.644Z,19.47
2023-04-03T00:20:08.815Z,19.47
2023-04-03T00:22:35.412Z,19.47
2023-04-03T00:25:02.049Z,19.45
2023-04-03T00:27:28.724Z,19.45
2023-04-03T00:29:55.504Z,19.44
2023-04-03T00:32:22.149Z,19.44
2023-04-03T00:34:48.748Z,19.42
2023-04-03T00:37:15.429Z,19.42
2023-04-03T00:39:41.993Z,19.42
2023-04-03T00:42:08.603Z,19.41
2023-04-03T00:44:35.140Z,19.41
2023-04-03T00:47:02.166Z,19.40
2023-04-03T00:49:28.809Z,19.39
2023-04-03T00:51:55.520Z,19.39
2023-04-03T00:54:22.183Z,19.37
2023-04-03T00:56:49.351Z,19.38
2023-04-03T00:59:17.866Z,19.38
2023-04-03T01:01:44.464Z,19.37
2023-04-03T01:04:29.272Z,19.36
2023-04-03T01:06:56.960Z,19.36
2023-04-03T01:09:23.545Z,19.35
2023-04-03T01:11:50.445Z,19.35
2023-04-03T01:14:17.031Z,19.34
2023-04-03T01:16:43.652Z,19.33
2023-04-03T01:19:13.430Z,19.33
2023-04-03T01:21:52.395Z,19.33
2023-04-03T01:24:42.238Z,19.32
2023-04-03T01:27:09.237Z,19.31
2023-04-03T01:29:36.008Z,19.30
2023-04-03T01:32:02.787Z,19.31
2023-04-03T01:34:29.426Z,19.30
2023-04-03T01:36:56.261Z,19.29
2023-04-03T01:39:23.051Z,19.29
2023-04-03T01:41:49.964Z,19.28
2023-04-03T01:44:16.678Z,19.28
2023-04-03T01:46:43.516Z,19.28
2023-04-03T01:49:10.346Z,19.26
2023-04-03T01:51:37.031Z,19.26
2023-04-03T01:54:03.713Z,19.26
2023-04-03T01:56:30.476Z,19.25
2023-04-03T01:58:57.061Z,19.24
2023-04-03T02:01:24.264Z,19.24
2023-04-03T02:03:51.220Z,19.23
2023-04-03T02:06:17.860Z,19.24
2023-04-03T02:08:44.473Z,19.23
2023-04-03T02:11:11.249Z,19.23
2023-04-03T02:13:37.848Z,19.22
2023-04-03T02:16:09.181Z,19.22
2023-04-03T02:18:35.827Z,19.21
2023-04-03T02:21:02.434Z,19.20
2023-04-03T02:23:29.039Z,19.19
2023-04-03T02:26:04.213Z,19.18
2023-04-03T02:28:30.978Z,19.19
2023-04-03T02:30:57.599Z,19.18
2023-04-03T02:33:24.161Z,19.17
2023-04-03T02:35:54.590Z,19.17
2023-04-03T02:38:21.286Z,19.16
2023-04-03T02:40:48.233Z,19.15
2023-04-03T02:43:14.824Z,19.14
2023-04-03T02:45:41.458Z,19.13
2023-04-03T02:48:08.117Z,19.13
2023-04-03T02:50:35.060Z,19.11
2023-04-03T02:53:01.853Z,19.12
2023-04-03T02:55:28.462Z,19.10
2023-04-03T02:57:55.017Z,19.10
2023-04-03T03:00:21.709Z,19.09
2023-04-03T03:02:49.911Z,19.08
2023-04-03T03:05:16.920Z,19.09
2023-04-03T03:07:43.520Z,19.09
2023-04-03T03:10:10.483Z,19.06
2023-04-03T03:12:37.049Z,19.07
2023-04-03T03:15:03.954Z,19.07
2023-04-03T03:17:30.566Z,19.06
2023-04-03T03:19:57.189Z,19.06
2023-04-03T03:22:23.832Z,19.06
2023-04-03T03:24:50.570Z,19.04
2023-04-03T03:27:17.448Z,19.04
2023-04-03T03:29:44.136Z,19.03
2023-04-03T03:32:10.773Z,19.04
2023-04-03T03:34:37.347Z,19.03
2023-04-03T03:37:04.018Z,19.02
2023-04-03T03:39:30.721Z,19.00
2023-04-03T03:41:57.273Z,19.00
2023-04-03T03:44:23.970Z,18.99
2023-04-03T03:46:50.748Z,19.00
2023-04-03T03:49:17.406Z,19.00
2023-04-03T03:51:44.012Z,18.99
2023-04-03T03:54:10.838Z,18.98
2023-04-03T03:56:37.597Z,18.99
2023-04-03T03:59:04.224Z,18.98
2023-04-03T04:01:31.571Z,18.97
2023-04-03T04:03:58.286Z,18.96
2023-04-03T04:06:25.080Z,18.95
2023-04-03T04:08:51.831Z,18.96
2023-04-03T04:11:18.483Z,18.95
2023-04-03T04:13:45.576Z,18.93
2023-04-03T04:16:12.261Z,18.92
2023-04-03T04:18:38.947Z,18.93
2023-04-03T04:21:05.817Z,18.91
2023-04-03T04:23:32.414Z,18.91
2023-04-03T04:25:59.086Z,18.91
2023-04-03T04:28:25.827Z,18.90
2023-04-03T04:30:52.457Z,18.90
2023-04-03T04:33:19.114Z,18.89
2023-04-03T04:35:47.804Z,18.86
2023-04-03T04:38:14.546Z,18.88
2023-04-03T04:40:41.713Z,18.87
2023-04-03T04:43:08.309Z,18.86
2023-04-03T04:45:35.258Z,18.89
2023-04-03T04:48:02.027Z,18.90
2023-04-03T04:50:28.716Z,18.92
2023-04-03T04:52:55.402Z,18.79
2023-04-03T04:55:22.147Z,18.63
2023-04-03T04:57:48.779Z,18.46
2023-04-03T05:00:16.280Z,18.32
2023-04-03T05:02:44.355Z,18.23
2023-04-03T05:05:11.208Z,18.19
2023-04-03T05:07:37.927Z,18.14
2023-04-03T05:10:05.026Z,18.03
2023-04-03T05:12:31.656Z,17.96
2023-04-03T05:14:58.372Z,17.91
2023-04-03T05:17:25.102Z,17.92
2023-04-03T05:19:51.744Z,18.02
2023-04-03T05:22:18.406Z,18.12
2023-04-03T05:24:45.060Z,18.41
2023-04-03T05:27:11.971Z,18.85
2023-04-03T05:29:38.605Z,19.27
2023-04-03T05:32:05.382Z,19.64
2023-04-03T05:34:31.989Z,19.94
2023-04-03T05:36:58.628Z,20.16
2023-04-03T05:39:25.586Z,20.36
2023-04-03T05:41:52.242Z,20.51
2023-04-03T05:44:18.868Z,20.65
2023-04-03T05:46:45.501Z,20.77
2023-04-03T05:49:12.072Z,20.88
2023-04-03T05:51:38.799Z,21.00
2023-04-03T05:54:14.898Z,21.14
2023-04-03T05:56:41.591Z,21.25
2023-04-03T05:59:08.479Z,21.33
2023-04-03T06:01:35.500Z,21.41
2023-04-03T06:04:02.363Z,21.47
2023-04-03T06:06:50.429Z,21.54
2023-04-03T06:09:17.735Z,21.62
2023-04-03T06:11:44.533Z,21.69
2023-04-03T06:14:11.482Z,21.75
2023-04-03T06:16:39.638Z,21.80
2023-04-03T06:19:07.957Z,21.86
2023-04-03T06:21:34.602Z,21.93
2023-04-03T06:24:01.408Z,21.96
2023-04-03T06:26:28.328Z,22.02
2023-04-03T06:28:55.072Z,22.07
2023-04-03T06:31:21.883Z,22.10
2023-04-03T06:33:48.633Z,22.13
2023-04-03T06:36:15.284Z,22.16
2023-04-03T06:38:41.971Z,22.21
2023-04-03T06:41:08.706Z,22.27
2023-04-03T06:43:35.357Z,22.30
2023-04-03T06:46:06.319Z,22.37
2023-04-03T06:48:33.006Z,22.46
2023-04-03T06:50:59.664Z,22.50
2023-04-03T06:53:26.255Z,22.51
2023-04-03T06:55:52.881Z,22.51
2023-04-03T06:58:21.830Z,22.54
2023-04-03T07:00:49.965Z,22.53
2023-04-03T07:03:17.324Z,22.47
2023-04-03T07:05:45.760Z,22.44
2023-04-03T07:08:12.438Z,22.40
2023-04-03T07:10:39.404Z,22.37
2023-04-03T07:13:06.086Z,22.29
2023-04-03T07:15:33.926Z,22.24
2023-04-03T07:18:00.798Z,22.16
2023-04-03T07:20:27.514Z,22.10
2023-04-03T07:22:54.312Z,22.01
2023-04-03T07:25:20.950Z,21.93
2023-04-03T07:27:47.604Z,21.88
2023-04-03T07:30:15.133Z,21.82
2023-04-03T07:32:42.051Z,21.76
2023-04-03T07:35:08.877Z,21.67
2023-04-03T07:37:35.573Z,21.61
2023-04-03T07:40:04.533Z,21.61
2023-04-03T07:42:31.427Z,21.55
2023-04-03T07:44:58.098Z,21.50
2023-04-03T07:47:24.795Z,21.49
2023-04-03T07:49:51.444Z,21.46
2023-04-03T07:52:18.036Z,21.45
2023-04-03T07:54:44.858Z,21.42
2023-04-03T07:57:11.732Z,21.38
2023-04-03T07:59:38.383Z,21.33
2023-04-03T08:02:06.127Z,21.28
2023-04-03T08:04:33.004Z,21.27
2023-04-03T08:06:59.791Z,21.22
2023-04-03T08:09:26.566Z,21.19
2023-04-03T08:11:54.450Z,21.16
2023-04-03T08:14:21.424Z,21.12
2023-04-03T08:16:48.574Z,21.07
2023-04-03T08:19:26.192Z,21.03
2023-04-03T08:21:54.930Z,21.00
2023-04-03T08:24:21.558Z,20.99
2023-04-03T08:26:48.158Z,20.97
2023-04-03T08:29:14.802Z,20.97
2023-04-03T08:31:41.461Z,20.94
2023-04-03T08:34:08.162Z,20.94
2023-04-03T08:36:34.802Z,20.94
2023-04-03T08:39:01.562Z,20.96
2023-04-03T08:41:36.672Z,20.97
2023-04-03T08:44:24.592Z,21.00
2023-04-03T08:47:12.380Z,21.00
2023-04-03T08:49:41.463Z,20.98
2023-04-03T08:52:13.696Z,20.96
2023-04-03T08:54:52.894Z,20.92
2023-04-03T08:57:36.103Z,20.86
2023-04-03T09:00:38.963Z,20.84
2023-04-03T09:03:05.600Z,20.84
2023-04-03T09:05:53.816Z,20.89
2023-04-03T09:08:28.362Z,21.03
2023-04-03T09:11:09.873Z,21.12
2023-04-03T09:14:02.103Z,21.26
2023-04-03T09:16:56.167Z,21.38
2023-04-03T09:19:32.137Z,21.56
2023-04-03T09:22:24.808Z,21.85
2023-04-03T09:24:58.101Z,22.08
2023-04-03T09:27:24.797Z,22.27
2023-04-03T09:29:51.422Z,22.43
2023-04-03T09:32:32.138Z,22.54
2023-04-03T09:35:27.412Z,22.65
2023-04-03T09:38:11.700Z,22.69
2023-04-03T09:40:42.754Z,22.71
2023-04-03T09:43:18.418Z,22.75
2023-04-03T09:45:45.972Z,22.79
2023-04-03T09:48:16.544Z,22.80
2023-04-03T09:50:57.189Z,22.78
2023-04-03T09:53:38.328Z,22.77
2023-04-03T09:56:43.267Z,22.82
2023-04-03T09:59:16.092Z,22.93
2023-04-03T10:02:07.521Z,23.06
2023-04-03T10:04:43.148Z,23.07
2023-04-03T10:07:28.672Z,23.18
2023-04-03T10:09:57.252Z,23.32
2023-04-03T10:12:24.070Z,23.34
2023-04-03T10:14:53.877Z,23.31
2023-04-03T10:17:43.674Z,23.34
2023-04-03T10:20:29.146Z,23.31
2023-04-03T10:23:18.894Z,23.21
2023-04-03T10:25:52.727Z,23.15
2023-04-03T10:28:32.412Z,23.09
2023-04-03T10:31:24.829Z,23.05
2023-04-03T10:34:31.552Z,23.04
2023-04-03T10:37:01.228Z,22.97
2023-04-03T10:39:50.486Z,22.94
2023-04-03T10:42:36.996Z,22.90
2023-04-03T10:45:27.804Z,22.86
2023-04-03T10:48:20.882Z,22.84
2023-04-03T10:51:05.160Z,22.82
2023-04-03T10:53:40.603Z,22.83
2023-04-03T10:56:28.376Z,22.78
2023-04-03T10:58:58.871Z,22.73
2023-04-03T11:01:32.086Z,22.69
2023-04-03T11:04:00.125Z,22.66
2023-04-03T11:06:29.396Z,22.64
2023-04-03T11:09:02.656Z,22.61
2023-04-03T11:11:36.274Z,22.58
2023-04-03T11:14:04.801Z,22.54
2023-04-03T11:16:43.329Z,22.51
2023-04-03T11:19:25.878Z,22.48
2023-04-03T11:21:54.111Z,22.44
2023-04-03T11:24:27.582Z,22.44
2023-04-03T11:26:55.016Z,22.41
2023-04-03T11:29:34.821Z,22.41
2023-04-03T11:32:08.124Z,22.37
2023-04-03T11:34:37.261Z,22.34
2023-04-03T11:37:06.186Z,22.31
2023-04-03T11:39:38.894Z,22.28
2023-04-03T11:42:18.749Z,22.26
2023-04-03T11:44:45.350Z,22.23
2023-04-03T11:47:13.299Z,22.22
2023-04-03T11:50:02.148Z,22.20
2023-04-03T11:52:44.182Z,22.17
2023-04-03T11:55:23.264Z,22.15
2023-04-03T11:57:58.702Z,22.12
2023-04-03T12:00:56.086Z,22.10
2023-04-03T12:03:25.588Z,22.09
2023-04-03T12:05:56.996Z,22.09
2023-04-03T12:08:51.513Z,22.09
2023-04-03T12:11:33.292Z,22.08
2023-04-03T12:13:59.820Z,22.06
2023-04-03T12:16:41.639Z,22.05
2023-04-03T12:19:41.288Z,22.03
2023-04-03T12:22:11.517Z,22.03
2023-04-03T12:24:40.652Z,22.01
2023-04-03T12:27:27.657Z,21.96
2023-04-03T12:30:02.275Z,21.95
2023-04-03T12:32:44.035Z,21.92
2023-04-03T12:35:19.992Z,21.89
2023-04-03T12:38:22.024Z,21.89
2023-04-03T12:40:57.684Z,21.89
2023-04-03T12:44:02.954Z,21.87
2023-04-03T12:46:49.339Z,21.85
2023-04-03T12:49:19.808Z,21.83
2023-04-03T12:51:46.763Z,21.83
2023-04-03T12:54:19.616Z,21.79
2023-04-03T12:56:46.507Z,21.79
2023-04-03T12:59:27.304Z,21.76
2023-04-03T13:01:55.617Z,21.75
2023-04-03T13:04:22.385Z,21.73
2023-04-03T13:06:49.007Z,21.71
2023-04-03T13:09:28.437Z,21.70
2023-04-03T13:12:02.446Z,21.68
2023-04-03T13:14:30.023Z,21.67
2023-04-03T13:17:01.182Z,21.64
2023-04-03T13:19:29.805Z,21.60
2023-04-03T13:22:07.797Z,21.60
2023-04-03T13:24:37.244Z,21.59
2023-04-03T13:27:05.215Z,21.58
2023-04-03T13:29:33.626Z,21.53
2023-04-03T13:32:01.444Z,21.39
2023-04-03T13:34:39.217Z,21.28
2023-04-03T13:37:05.893Z,21.27
2023-04-03T13:39:34.172Z,21.29
2023-04-03T13:42:02.814Z,21.29
2023-04-03T13:44:35.265Z,21.30
2023-04-03T13:47:11.070Z,21.32
2023-04-03T13:49:38.331Z,21.32
2023-04-03T13:52:49.188Z,21.34
2023-04-03T13:55:25.922Z,21.34
2023-04-03T13:58:15.909Z,21.33
2023-04-03T14:01:09.686Z,21.30
2023-04-03T14:04:00.777Z,21.28
2023-04-03T14:06:27.604Z,21.28
2023-04-03T14:08:56.374Z,21.27
2023-04-03T14:11:25.415Z,21.25
2023-04-03T14:13:51.992Z,21.25
2023-04-03T14:16:23.178Z,21.24
2023-04-03T14:18:50.743Z,21.23
2023-04-03T14:21:17.955Z,21.25
2023-04-03T14:23:44.926Z,21.24
2023-04-03T14:26:17.544Z,21.25
2023-04-03T14:28:47.413Z,21.22
2023-04-03T14:31:14.262Z,21.21
2023-04-03T14:33:40.984Z,21.19
2023-04-03T14:36:18.956Z,21.18
2023-04-03T14:38:45.765Z,21.18
2023-04-03T14:41:17.762Z,21.17
2023-04-03T14:43:45.517Z,21.17
2023-04-03T14:46:48.321Z,21.17
2023-04-03T14:49:21.891Z,21.15
2023-04-03T14:51:48.502Z,21.17
2023-04-03T14:54:19.981Z,21.17
2023-04-03T14:56:46.587Z,21.16
2023-04-03T14:59:13.750Z,21.14
2023-04-03T15:01:40.489Z,21.15
2023-04-03T15:04:15.619Z,21.13
2023-04-03T15:06:42.509Z,21.12
2023-04-03T15:09:23.061Z,21.11
2023-04-03T15:11:51.043Z,21.11
2023-04-03T15:14:29.576Z,21.10
2023-04-03T15:17:07.340Z,21.10
2023-04-03T15:19:39.082Z,21.08
2023-04-03T15:22:05.957Z,21.08
2023-04-03T15:24:32.633Z,21.06
2023-04-03T15:26:59.381Z,21.05
2023-04-03T15:29:26.018Z,21.04
2023-04-03T15:31:54.629Z,21.03
2023-04-03T15:34:22.831Z,21.02
2023-04-03T15:36:51.113Z,21.00
2023-04-03T15:39:17.902Z,20.99
2023-04-03T15:41:45.214Z,20.97
2023-04-03T15:44:13.143Z,20.97
2023-04-03T15:46:39.885Z,20.97
2023-04-03T15:49:06.581Z,20.94
2023-04-03T15:51:33.157Z,20.93
2023-04-03T15:53:59.778Z,20.93
2023-04-03T15:56:26.458Z,20.92
2023-04-03T15:58:53.060Z,20.91
2023-04-03T16:01:19.687Z,20.90
2023-04-03T16:03:46.544Z,20.89
2023-04-03T16:06:19.899Z,20.88
2023-04-03T16:08:50.086Z,20.87
2023-04-03T16:11:16.712Z,20.85
2023-04-03T16:13:43.295Z,20.83
2023-04-03T16:16:10.066Z,20.82
2023-04-03T16:18:36.886Z,20.81
2023-04-03T16:21:03.551Z,20.81
2023-04-03T16:23:30.287Z,20.80
2023-04-03T16:25:58.291Z,20.78
2023-04-03T16:28:24.911Z,20.75
2023-04-03T16:30:51.637Z,20.74
2023-04-03T16:33:18.364Z,20.72
2023-04-03T16:35:45.380Z,20.71
2023-04-03T16:38:12.200Z,20.69
2023-04-03T16:40:38.855Z,20.68
2023-04-03T16:43:05.751Z,20.67
2023-04-03T16:45:32.427Z,20.66
2023-04-03T16:47:59.060Z,20.64
2023-04-03T16:50:26.014Z,20.63
2023-04-03T16:52:52.630Z,20.62
2023-04-03T16:55:19.430Z,20.61
2023-04-03T16:57:46.094Z,20.61
2023-04-03T17:00:13.405Z,20.60
2023-04-03T17:02:43.191Z,20.58
2023-04-03T17:05:09.913Z,20.58
2023-04-03T17:07:36.520Z,20.59
2023-04-03T17:10:03.345Z,20.58
2023-04-03T17:12:30.550Z,20.57
2023-04-03T17:14:57.222Z,20.55
2023-04-03T17:17:24.764Z,20.54
2023-04-03T17:19:51.410Z,20.55
2023-04-03T17:22:18.187Z,20.56
2023-04-03T17:24:45.128Z,20.54
2023-04-03T17:27:11.724Z,20.53
2023-04-03T17:29:38.460Z,20.51
2023-04-03T17:32:05.276Z,20.49
2023-04-03T17:34:33.636Z,20.49
2023-04-03T17:37:00.438Z,20.48
2023-04-03T17:39:27.116Z,20.46
2023-04-03T17:41:55.087Z,20.45
2023-04-03T17:44:22.127Z,20.44
2023-04-03T17:46:48.814Z,20.44
2023-04-03T17:49:18.790Z,20.41
2023-04-03T17:51:45.445Z,20.39
2023-04-03T17:54:12.371Z,20.38
2023-04-03T17:56:39.112Z,20.36
2023-04-03T17:59:05.785Z,20.37
2023-04-03T18:01:33.691Z,20.35
2023-04-03T18:04:02.137Z,20.34
2023-04-03T18:06:32.934Z,20.32
2023-04-03T18:09:04.177Z,20.31
2023-04-03T18:11:30.934Z,20.29
2023-04-03T18:14:00.241Z,20.29
2023-04-03T18:16:28.547Z,20.27
2023-04-03T18:19:06.939Z,20.27
2023-04-03T18:21:42.103Z,20.25
2023-04-03T18:24:12.267Z,20.24
2023-04-03T18:26:38.927Z,20.23
2023-04-03T18:29:07.198Z,20.22
2023-04-03T18:31:34.057Z,20.21
2023-04-03T18:34:00.996Z,20.20
2023-04-03T18:36:27.964Z,20.19
2023-04-03T18:38:55.020Z,20.17
2023-04-03T18:41:23.076Z,20.16
2023-04-03T18:43:49.725Z,20.15
2023-04-03T18:46:16.525Z,20.15
2023-04-03T18:48:43.632Z,20.12
2023-04-03T18:51:10.813Z,20.12
2023-04-03T18:53:37.441Z,20.11
2023-04-03T18:56:04.259Z,20.08
2023-04-03T18:58:31.573Z,20.07
2023-04-03T19:00:59.291Z,20.06
2023-04-03T19:03:26.106Z,20.06
2023-04-03T19:05:52.824Z,20.04
2023-04-03T19:08:19.420Z,20.03
2023-04-03T19:10:46.020Z,20.02
2023-04-03T19:13:12.643Z,20.02
2023-04-03T19:15:39.232Z,20.01
2023-04-03T19:18:06.252Z,20.00
2023-04-03T19:20:32.885Z,20.01
2023-04-03T19:22:59.464Z,19.99
2023-04-03T19:25:26.113Z,19.99
2023-04-03T19:27:52.692Z,19.98
2023-04-03T19:30:19.367Z,19.97
2023-04-03T19:32:46.457Z,19.96
2023-04-03T19:35:13.437Z,19.94
2023-04-03T19:37:40.034Z,19.92
2023-04-03T19:40:07.568Z,19.93
2023-04-03T19:42:36.781Z,19.94
2023-04-03T19:45:03.580Z,19.92
2023-04-03T19:47:30.338Z,19.90
2023-04-03T19:49:57.027Z,19.90
2023-04-03T19:52:23.652Z,19.88
2023-04-03T19:54:51.760Z,19.88
2023-04-03T19:57:19.513Z,19.88
2023-04-03T19:59:46.146Z,19.86
2023-04-03T20:02:12.742Z,19.86
2023-04-03T20:04:39.689Z,19.82
2023-04-03T20:07:06.966Z,19.83
2023-04-03T20:09:34.128Z,19.82
2023-04-03T20:12:01.345Z,19.80
2023-04-03T20:14:28.465Z,19.78
2023-04-03T20:16:55.112Z,19.78
2023-04-03T20:19:21.750Z,19.76
2023-04-03T20:21:50.169Z,19.75
2023-04-03T20:24:17.870Z,19.75
2023-04-03T20:26:46.433Z,19.73
2023-04-03T20:29:14.691Z,19.73
2023-04-03T20:31:42.191Z,19.72
2023-04-03T20:34:09.317Z,19.70
2023-04-03T20:36:36.882Z,19.68
2023-04-03T20:39:03.885Z,19.68
2023-04-03T20:41:31.861Z,19.68
2023-04-03T20:44:00.352Z,19.65
2023-04-03T20:46:42.256Z,19.64
2023-04-03T20:49:15.709Z,19.62
2023-04-03T20:51:42.384Z,19.61
2023-04-03T20:54:09.004Z,19.60
2023-04-03T20:56:36.302Z,19.60
2023-04-03T20:59:04.800Z,19.59
2023-04-03T21:01:31.906Z,19.58
2023-04-03T21:04:09.934Z,19.57
2023-04-03T21:07:14.423Z,19.55
2023-04-03T21:10:18.824Z,19.54
2023-04-03T21:13:23.773Z,19.51
2023-04-03T21:15:51.983Z,19.52
2023-04-03T21:19:00.770Z,19.52
2023-04-03T21:21:27.518Z,19.49
2023-04-03T21:23:54.721Z,19.49
2023-04-03T21:26:24.410Z,19.47
2023-04-03T21:28:51.896Z,19.45
2023-04-03T21:31:19.792Z,19.44
2023-04-03T21:33:46.530Z,19.45
2023-04-03T21:36:13.377Z,19.43
2023-04-03T21:38:40.655Z,19.43
2023-04-03T21:41:07.239Z,19.42
2023-04-03T21:43:33.876Z,19.42
2023-04-03T21:46:00.562Z,19.41
2023-04-03T21:48:30.571Z,19.40
2023-04-03T21:51:06.960Z,19.40
2023-04-03T21:53:34.311Z,19.38
2023-04-03T21:56:02.486Z,19.37
2023-04-03T21:58:30.660Z,19.36
2023-04-03T22:00:57.583Z,19.35
2023-04-03T22:03:24.657Z,19.34
2023-04-03T22:05:51.362Z,19.33
2023-04-03T22:08:18.568Z,19.32
2023-04-03T22:10:45.238Z,19.31
2023-04-03T22:13:11.938Z,19.29
2023-04-03T22:15:48.253Z,19.29
2023-04-03T22:18:14.932Z,19.28
2023-04-03T22:20:43.429Z,19.29
2023-04-03T22:23:10.392Z,19.26
2023-04-03T22:25:37.021Z,19.26
2023-04-03T22:28:03.591Z,19.26
2023-04-03T22:30:30.765Z,19.25
2023-04-03T22:32:57.437Z,19.25
2023-04-03T22:35:24.150Z,19.24
2023-04-03T22:37:51.331Z,19.25
2023-04-03T22:40:18.493Z,19.23
2023-04-03T22:42:48.345Z,19.23
2023-04-03T22:45:15.730Z,19.22
2023-04-03T22:47:43.084Z,19.20
2023-04-03T22:50:10.298Z,19.22
2023-04-03T22:52:36.895Z,19.19
2023-04-03T22:55:16.460Z,19.20
2023-04-03T22:57:48.718Z,19.19
2023-04-03T23:00:16.431Z,19.18
2023-04-03T23:02:43.474Z,19.17
2023-04-03T23:05:10.258Z,19.15
2023-04-03T23:07:37.019Z,19.15
2023-04-03T23:10:04.104Z,19.15
2023-04-03T23:12:32.905Z,19.13
2023-04-03T23:14:59.487Z,19.12
2023-04-03T23:17:26.138Z,19.11
2023-04-03T23:19:52.786Z,19.10
2023-04-03T23:22:19.805Z,19.09
2023-04-03T23:24:46.415Z,19.08
2023-04-03T23:27:13.117Z,19.08
2023-04-03T23:29:42.089Z,19.07
2023-04-03T23:32:08.940Z,19.08
2023-04-03T23:34:35.862Z,19.05
2023-04-03T23:37:02.544Z,19.03
2023-04-03T23:39:29.173Z,19.02
2023-04-03T23:41:55.871Z,19.00
2023-04-03T23:44:22.494Z,18.99
2023-04-03T23:46:49.130Z,18.97
2023-04-03T23:49:16.537Z,18.99
2023-04-03T23:51:43.130Z,19.01
2023-04-03T23:54:09.784Z,19.05
2023-04-03T23:56:36.449Z,19.15
2023-04-03T23:59:03.091Z,19.30
